createdAt,value
2019-01-21T00:00:39.076Z,4.00
2019-01-21T00:03:14.379Z,4.00
2019-01-21T00:05:40.554Z,4.00
2019-01-21T00:08:10.106Z,4.20
2019-01-21T00:10:39.530Z,4.20
2019-01-21T00:13:08.958Z,4.20
2019-01-21T00:15:38.423Z,4.30
2019-01-21T00:18:07.910Z,4.30
2019-01-21T00:20:37.343Z,4.30
2019-01-21T00:23:08.963Z,4.20
2019-01-21T00:25:38.640Z,4.20
2019-01-21T00:28:08.195Z,4.20
2019-01-21T00:30:37.620Z,4.30
2019-01-21T00:33:09.133Z,4.30
2019-01-21T00:35:42.155Z,4.30
2019-01-21T00:38:11.608Z,4.30
2019-01-21T00:40:41.100Z,4.30
2019-01-21T00:43:10.741Z,4.30
2019-01-21T00:45:40.699Z,4.30
2019-01-21T00:48:10.147Z,4.30
2019-01-21T00:50:39.574Z,4.40
2019-01-21T00:53:09.027Z,4.40
2019-01-21T00:55:38.499Z,4.50
2019-01-21T00:58:08.035Z,4.50
2019-01-21T01:00:37.469Z,4.50
2019-01-21T01:03:06.890Z,4.40
2019-01-21T01:05:36.382Z,4.50
2019-01-21T01:08:06.354Z,4.50
2019-01-21T01:10:36.323Z,4.50
2019-01-21T01:13:05.743Z,4.50
2019-01-21T01:15:35.642Z,4.40
2019-01-21T01:18:05.523Z,4.40
2019-01-21T01:20:34.946Z,4.50
2019-01-21T01:23:06.012Z,4.50
2019-01-21T01:25:35.351Z,4.50
2019-01-21T01:28:04.868Z,4.60
2019-01-21T01:30:34.306Z,4.70
2019-01-21T01:33:03.712Z,4.70
2019-01-21T01:35:33.107Z,4.80
2019-01-21T01:38:02.542Z,4.80
2019-01-21T01:40:32.440Z,4.70
2019-01-21T01:43:02.118Z,4.70
2019-01-21T01:45:31.614Z,4.60
2019-01-21T01:48:02.435Z,4.70
2019-01-21T01:50:32.120Z,4.60
2019-01-21T01:53:02.558Z,4.60
2019-01-21T01:55:32.434Z,4.60
2019-01-21T01:58:02.856Z,4.60
2019-01-21T02:00:32.851Z,4.60
2019-01-21T02:03:05.673Z,4.70
2019-01-21T02:05:35.155Z,4.70
2019-01-21T02:08:05.058Z,4.70
2019-01-21T02:10:34.571Z,4.80
2019-01-21T02:13:04.679Z,4.80
2019-01-21T02:15:34.179Z,4.80
2019-01-21T02:18:03.960Z,4.70
2019-01-21T02:20:33.674Z,4.80
2019-01-21T02:23:03.767Z,4.80
2019-01-21T02:25:41.707Z,4.70
2019-01-21T02:28:32.534Z,4.60
2019-01-21T02:31:29.346Z,4.70
2019-01-21T02:34:17.650Z,4.80
2019-01-21T02:37:04.390Z,4.80
2019-01-21T02:39:51.952Z,4.90
2019-01-21T02:42:27.123Z,4.90
2019-01-21T02:45:14.611Z,4.90
2019-01-21T02:47:49.999Z,4.90
2019-01-21T02:50:34.399Z,4.80
2019-01-21T02:53:15.896Z,4.80
2019-01-21T02:56:09.374Z,4.80
2019-01-21T02:59:01.248Z,4.70
2019-01-21T03:01:50.684Z,4.70
2019-01-21T03:04:39.980Z,4.80
2019-01-21T03:07:18.476Z,4.90
2019-01-21T03:09:54.030Z,4.90
2019-01-21T03:12:41.504Z,4.80
2019-01-21T03:15:33.265Z,4.80
2019-01-21T03:18:08.367Z,4.80
2019-01-21T03:21:03.586Z,4.90
2019-01-21T03:23:45.029Z,4.90
2019-01-21T03:26:34.119Z,4.90
2019-01-21T03:29:22.996Z,5.00
2019-01-21T03:32:01.387Z,5.00
2019-01-21T03:34:45.329Z,5.00
2019-01-21T03:37:34.410Z,5.00
2019-01-21T03:40:25.247Z,5.00
2019-01-21T03:43:15.584Z,5.00
2019-01-21T03:46:19.579Z,5.10
2019-01-21T03:48:50.899Z,5.10
2019-01-21T03:51:37.983Z,5.00
2019-01-21T03:54:13.228Z,4.90
2019-01-21T03:56:45.943Z,4.80
2019-01-21T03:59:33.904Z,4.90
2019-01-21T04:02:32.162Z,4.90
2019-01-21T04:05:20.367Z,5.00
2019-01-21T04:08:11.599Z,5.00
2019-01-21T04:10:53.295Z,5.10
2019-01-21T04:13:37.866Z,5.10
2019-01-21T04:16:25.796Z,5.10
2019-01-21T04:19:01.203Z,5.10
2019-01-21T04:21:39.476Z,5.10
2019-01-21T04:24:29.790Z,5.20
2019-01-21T04:27:02.297Z,5.20
2019-01-21T04:30:09.078Z,5.20
2019-01-21T04:33:11.671Z,5.20
2019-01-21T04:36:03.371Z,5.20
2019-01-21T04:38:39.707Z,5.20
2019-01-21T04:41:24.108Z,5.20
2019-01-21T04:44:05.518Z,5.20
2019-01-21T04:47:01.930Z,5.10
2019-01-21T04:49:40.250Z,5.10
2019-01-21T04:52:21.063Z,5.10
2019-01-21T04:55:02.811Z,5.10
2019-01-21T04:57:41.123Z,5.20
2019-01-21T05:00:34.687Z,5.30
2019-01-21T05:03:16.044Z,5.30
2019-01-21T05:06:03.603Z,5.30
2019-01-21T05:08:47.390Z,5.30
2019-01-21T05:11:36.539Z,5.20
2019-01-21T05:14:21.299Z,5.20
2019-01-21T05:16:59.757Z,5.20
2019-01-21T05:19:48.682Z,5.10
2019-01-21T05:22:21.197Z,5.10
2019-01-21T05:25:22.630Z,5.10
2019-01-21T05:28:14.024Z,5.10
2019-01-21T05:31:01.740Z,5.10
2019-01-21T05:33:40.694Z,5.10
2019-01-21T05:36:16.331Z,5.10
2019-01-21T05:39:05.781Z,5.10
2019-01-21T05:41:46.891Z,5.10
2019-01-21T05:44:19.363Z,5.20
2019-01-21T05:47:16.517Z,5.20
2019-01-21T05:50:11.815Z,5.20
2019-01-21T05:53:09.935Z,5.20
2019-01-21T05:56:00.654Z,5.20
2019-01-21T05:58:38.818Z,5.10
2019-01-21T06:01:44.691Z,5.10
2019-01-21T06:04:23.087Z,5.00
2019-01-21T06:07:18.672Z,5.10
2019-01-21T06:10:12.748Z,5.10
2019-01-21T06:13:03.842Z,5.20
2019-01-21T06:15:45.222Z,5.20
2019-01-21T06:18:30.319Z,5.10
2019-01-21T06:21:24.003Z,5.10
2019-01-21T06:24:08.227Z,5.00
2019-01-21T06:27:01.469Z,5.00
2019-01-21T06:29:36.871Z,5.00
2019-01-21T06:32:20.992Z,5.00
2019-01-21T06:34:56.039Z,5.00
2019-01-21T06:37:34.174Z,5.00
2019-01-21T06:40:33.499Z,5.00
2019-01-21T06:43:18.756Z,5.00
2019-01-21T06:46:16.586Z,5.00
2019-01-21T06:49:12.826Z,5.00
2019-01-21T06:52:00.375Z,5.10
2019-01-21T06:55:07.904Z,5.10
2019-01-21T06:57:43.150Z,5.00
2019-01-21T07:00:31.578Z,5.00
2019-01-21T07:03:13.764Z,5.10
2019-01-21T07:06:08.720Z,5.10
2019-01-21T07:08:52.466Z,5.10
2019-01-21T07:11:30.435Z,5.00
2019-01-21T07:14:24.590Z,5.00
2019-01-21T07:17:00.103Z,5.00
2019-01-21T07:19:49.810Z,4.90
2019-01-21T07:22:55.256Z,4.90
2019-01-21T07:25:39.824Z,5.00
2019-01-21T07:28:12.298Z,5.00
2019-01-21T07:31:04.227Z,5.00
2019-01-21T07:33:45.356Z,5.00
2019-01-21T07:36:24.137Z,5.00
2019-01-21T07:38:56.551Z,5.00
2019-01-21T07:41:40.642Z,5.00
2019-01-21T07:44:21.910Z,5.00
2019-01-21T07:47:11.353Z,4.90
2019-01-21T07:49:52.452Z,5.00
2019-01-21T07:52:33.591Z,4.90
2019-01-21T07:55:22.330Z,4.90
2019-01-21T07:58:17.863Z,5.00
2019-01-21T08:01:05.307Z,5.00
2019-01-21T08:03:56.306Z,5.00
2019-01-21T08:06:29.115Z,4.90
2019-01-21T08:09:18.273Z,4.80
2019-01-21T08:11:54.114Z,4.80
2019-01-21T08:14:32.438Z,4.70
2019-01-21T08:17:04.854Z,4.60
2019-01-21T08:19:55.523Z,4.60
2019-01-21T08:22:36.524Z,4.50
2019-01-21T08:25:23.763Z,4.40
2019-01-21T08:27:56.229Z,4.30
2019-01-21T08:30:43.696Z,4.30
2019-01-21T08:33:30.907Z,4.30
2019-01-21T08:36:21.565Z,4.30
2019-01-21T08:39:02.977Z,4.40
2019-01-21T08:41:47.681Z,4.50
2019-01-21T08:44:49.041Z,4.60
2019-01-21T08:47:24.272Z,4.70
2019-01-21T08:49:59.463Z,4.80
2019-01-21T08:52:46.797Z,4.80
2019-01-21T08:55:37.626Z,4.80
2019-01-21T08:58:37.054Z,4.90
2019-01-21T09:01:12.254Z,4.90
2019-01-21T09:03:53.675Z,5.00
2019-01-21T09:06:50.365Z,5.00
2019-01-21T09:09:23.294Z,5.10
2019-01-21T09:12:13.710Z,5.10
2019-01-21T09:15:02.904Z,5.10
2019-01-21T09:17:38.688Z,5.20
2019-01-21T09:20:19.951Z,5.20
2019-01-21T09:23:08.936Z,5.20
2019-01-21T09:25:53.516Z,5.20
2019-01-21T09:28:41.040Z,5.30
2019-01-21T09:31:23.000Z,5.50
2019-01-21T09:34:03.916Z,5.50
2019-01-21T09:36:42.593Z,5.40
2019-01-21T09:39:23.884Z,5.40
2019-01-21T09:42:23.463Z,5.30
2019-01-21T09:45:14.253Z,5.20
2019-01-21T09:47:42.640Z,5.30
2019-01-21T09:50:12.341Z,5.30
2019-01-21T09:52:43.101Z,5.40
2019-01-21T09:55:14.764Z,5.30
2019-01-21T09:57:46.138Z,5.30
2019-01-21T10:00:18.435Z,5.30
2019-01-21T10:02:48.910Z,5.30
2019-01-21T10:05:18.404Z,5.20
2019-01-21T10:08:03.034Z,5.20
2019-01-21T10:10:38.151Z,5.20
2019-01-21T10:13:16.811Z,5.20
2019-01-21T10:15:51.921Z,5.10
2019-01-21T10:18:24.505Z,5.10
2019-01-21T10:21:16.627Z,5.10
2019-01-21T10:23:55.016Z,5.10
2019-01-21T10:26:33.805Z,5.10
2019-01-21T10:29:12.845Z,5.00
2019-01-21T10:31:51.113Z,5.00
2019-01-21T10:34:35.723Z,5.10
2019-01-21T10:37:29.060Z,5.20
2019-01-21T10:40:11.345Z,5.20
2019-01-21T10:43:03.496Z,5.20
2019-01-21T10:45:42.102Z,5.20
2019-01-21T10:48:17.381Z,5.20
2019-01-21T10:50:58.646Z,5.30
2019-01-21T10:53:43.345Z,5.40
2019-01-21T10:56:41.023Z,5.50
2019-01-21T10:59:19.541Z,5.60
2019-01-21T11:02:02.743Z,5.70
2019-01-21T11:04:47.475Z,5.90
2019-01-21T11:07:25.895Z,6.00
2019-01-21T11:09:58.340Z,6.20
2019-01-21T11:12:33.408Z,6.40
2019-01-21T11:15:26.913Z,6.30
2019-01-21T11:17:59.370Z,6.40
2019-01-21T11:20:41.425Z,6.40
2019-01-21T11:23:26.336Z,6.60
2019-01-21T11:26:16.765Z,6.80
2019-01-21T11:29:01.928Z,6.80
2019-01-21T11:31:36.985Z,6.80
2019-01-21T11:34:25.870Z,7.10
2019-01-21T11:37:20.650Z,8.10
2019-01-21T11:40:13.760Z,9.60
2019-01-21T11:42:48.971Z,10.40
2019-01-21T11:45:42.223Z,11.40
2019-01-21T11:48:43.177Z,10.80
2019-01-21T11:51:18.308Z,9.50
2019-01-21T11:54:07.463Z,8.40
2019-01-21T11:56:56.408Z,7.90
2019-01-21T11:59:28.849Z,7.90
2019-01-21T12:02:10.495Z,7.70
2019-01-21T12:04:47.112Z,7.50
2019-01-21T12:07:22.469Z,7.30
2019-01-21T12:10:11.466Z,7.50
2019-01-21T12:12:49.554Z,8.30
2019-01-21T12:15:27.805Z,8.70
2019-01-21T12:18:16.778Z,8.20
2019-01-21T12:21:15.941Z,7.70
2019-01-21T12:23:54.202Z,7.30
2019-01-21T12:26:29.405Z,7.10
2019-01-21T12:29:28.436Z,7.00
2019-01-21T12:32:12.956Z,6.90
2019-01-21T12:35:03.432Z,6.90
2019-01-21T12:37:35.937Z,7.00
2019-01-21T12:40:32.716Z,7.10
2019-01-21T12:43:11.078Z,7.00
2019-01-21T12:46:06.626Z,7.00
2019-01-21T12:48:39.072Z,7.00
2019-01-21T12:51:29.728Z,6.80
2019-01-21T12:54:20.503Z,6.80
2019-01-21T12:57:11.308Z,6.70
2019-01-21T13:00:06.214Z,6.60
2019-01-21T13:02:47.307Z,6.60
2019-01-21T13:05:28.868Z,6.50
2019-01-21T13:08:04.591Z,6.50
2019-01-21T13:10:46.222Z,6.50
2019-01-21T13:13:21.776Z,6.50
2019-01-21T13:16:12.379Z,6.40
2019-01-21T13:18:57.792Z,6.50
2019-01-21T13:21:38.989Z,6.60
2019-01-21T13:24:20.569Z,6.60
2019-01-21T13:26:52.998Z,6.60
2019-01-21T13:29:28.469Z,6.70
2019-01-21T13:32:17.253Z,6.70
2019-01-21T13:35:06.064Z,6.80
2019-01-21T13:37:56.203Z,6.80
2019-01-21T13:40:47.172Z,6.80
2019-01-21T13:43:40.217Z,6.80
2019-01-21T13:46:18.846Z,6.90
2019-01-21T13:48:54.597Z,7.00
2019-01-21T13:51:33.072Z,6.80
2019-01-21T13:54:13.918Z,6.80
2019-01-21T13:56:52.121Z,6.80
2019-01-21T13:59:47.002Z,6.70
2019-01-21T14:02:20.035Z,6.60
2019-01-21T14:05:04.551Z,6.70
2019-01-21T14:07:54.438Z,6.80
2019-01-21T14:10:29.721Z,6.90
2019-01-21T14:13:17.418Z,6.90
2019-01-21T14:15:59.140Z,6.90
2019-01-21T14:18:43.598Z,6.90
2019-01-21T14:21:27.724Z,7.00
2019-01-21T14:24:16.768Z,6.90
2019-01-21T14:27:06.135Z,6.70
2019-01-21T14:29:47.269Z,6.60
2019-01-21T14:32:42.347Z,6.60
2019-01-21T14:35:36.118Z,6.70
2019-01-21T14:38:22.907Z,6.60
2019-01-21T14:41:10.251Z,6.60
2019-01-21T14:43:48.731Z,6.60
2019-01-21T14:46:50.576Z,6.60
2019-01-21T14:49:23.062Z,6.60
2019-01-21T14:52:21.206Z,6.50
2019-01-21T14:55:13.616Z,6.50
2019-01-21T14:57:46.104Z,6.50
2019-01-21T15:00:27.449Z,6.50
2019-01-21T15:03:09.368Z,6.40
2019-01-21T15:06:15.423Z,6.50
2019-01-21T15:08:47.976Z,6.40
2019-01-21T15:11:40.991Z,6.40
2019-01-21T15:14:20.161Z,6.40
2019-01-21T15:17:09.127Z,6.40
2019-01-21T15:19:40.283Z,6.30
2019-01-21T15:22:24.625Z,6.30
2019-01-21T15:25:21.700Z,6.20
2019-01-21T15:28:13.297Z,6.20
2019-01-21T15:31:03.389Z,6.10
2019-01-21T15:33:48.064Z,6.10
2019-01-21T15:36:29.528Z,6.00
2019-01-21T15:39:08.221Z,6.00
2019-01-21T15:41:40.749Z,6.00
2019-01-21T15:44:14.610Z,6.00
2019-01-21T15:47:17.221Z,5.90
2019-01-21T15:50:15.219Z,5.80
2019-01-21T15:52:50.458Z,5.90
2019-01-21T15:55:32.564Z,5.80
2019-01-21T15:58:18.748Z,5.80
2019-01-21T16:03:52.941Z,5.80
2019-01-21T16:06:40.126Z,5.70
2019-01-21T16:09:30.703Z,5.70
2019-01-21T16:12:37.591Z,5.70
2019-01-21T16:15:29.420Z,5.60
2019-01-21T16:18:49.907Z,5.60
2019-01-21T16:21:30.892Z,5.60
2019-01-21T16:24:10.599Z,5.50
2019-01-21T16:26:43.515Z,5.50
2019-01-21T16:29:15.967Z,5.40
2019-01-21T16:31:48.172Z,5.40
2019-01-21T16:34:26.402Z,5.40
2019-01-21T16:37:10.690Z,5.50
2019-01-21T16:39:49.052Z,5.60
2019-01-21T16:42:18.370Z,5.60
2019-01-21T16:44:48.290Z,5.60
2019-01-21T16:47:17.716Z,5.60
2019-01-21T16:49:47.232Z,5.50
2019-01-21T16:52:16.967Z,5.50
2019-01-21T16:54:46.325Z,5.50
2019-01-21T16:57:15.847Z,5.50
2019-01-21T16:59:45.272Z,5.50
2019-01-21T17:02:14.798Z,5.50
2019-01-21T17:04:44.181Z,5.50
2019-01-21T17:07:13.676Z,5.50
2019-01-21T17:09:43.164Z,5.50
2019-01-21T17:12:12.651Z,5.50
2019-01-21T17:14:42.603Z,5.50
2019-01-21T17:19:41.574Z,5.50
2019-01-21T17:22:10.992Z,5.50
2019-01-21T17:24:40.412Z,5.50
2019-01-21T17:27:09.921Z,5.60
2019-01-21T17:29:39.282Z,5.60
2019-01-21T17:32:08.864Z,5.60
2019-01-21T17:34:38.727Z,5.60
2019-01-21T17:37:08.625Z,5.60
2019-01-21T17:39:38.532Z,5.70
2019-01-21T17:42:08.053Z,5.70
2019-01-21T17:44:37.674Z,5.60
2019-01-21T17:47:07.832Z,5.60
2019-01-21T17:49:37.846Z,5.60
2019-01-21T17:52:07.789Z,5.60
2019-01-21T17:54:38.186Z,5.60
2019-01-21T17:57:07.799Z,5.60
2019-01-21T17:59:37.237Z,5.50
2019-01-21T18:02:06.888Z,5.60
2019-01-21T18:04:36.797Z,5.50
2019-01-21T18:07:06.746Z,5.50
2019-01-21T18:09:36.578Z,5.50
2019-01-21T18:12:06.080Z,5.40
2019-01-21T18:14:35.816Z,5.40
2019-01-21T18:17:05.250Z,5.40
2019-01-21T18:19:34.662Z,5.40
2019-01-21T18:22:04.692Z,5.40
2019-01-21T18:24:35.307Z,5.40
2019-01-21T18:27:04.797Z,5.40
2019-01-21T18:29:34.179Z,5.30
2019-01-21T18:32:04.263Z,5.40
2019-01-21T18:34:33.663Z,5.40
2019-01-21T18:37:03.102Z,5.40
2019-01-21T18:39:32.547Z,5.40
2019-01-21T18:42:02.611Z,5.30
2019-01-21T18:44:34.501Z,5.30
2019-01-21T18:47:05.487Z,5.30
2019-01-21T18:49:34.931Z,5.20
2019-01-21T18:52:04.870Z,5.20
2019-01-21T18:54:34.347Z,5.20
2019-01-21T18:57:03.708Z,5.10
2019-01-21T18:59:33.214Z,5.10
2019-01-21T19:02:02.632Z,5.00
2019-01-21T19:04:32.594Z,4.90
2019-01-21T19:07:02.463Z,4.90
2019-01-21T19:09:32.389Z,4.80
2019-01-21T19:12:01.843Z,4.90
2019-01-21T19:14:31.895Z,4.80
2019-01-21T19:17:01.381Z,4.80
2019-01-21T19:19:31.185Z,4.80
2019-01-21T19:22:01.051Z,4.80
2019-01-21T19:24:30.472Z,4.80
2019-01-21T19:27:00.446Z,4.80
2019-01-21T19:29:30.081Z,4.70
2019-01-21T19:31:59.568Z,4.80
2019-01-21T19:34:33.295Z,4.80
2019-01-21T19:37:02.658Z,4.80
2019-01-21T19:39:32.975Z,4.80
2019-01-21T19:42:02.872Z,4.80
2019-01-21T19:44:32.439Z,4.80
2019-01-21T19:47:02.776Z,4.80
2019-01-21T19:49:34.543Z,4.80
2019-01-21T19:52:04.046Z,4.80
2019-01-21T19:54:33.995Z,4.80
2019-01-21T19:57:03.992Z,4.80
2019-01-21T19:59:33.408Z,4.80
2019-01-21T20:02:02.848Z,4.80
2019-01-21T20:04:32.287Z,4.80
2019-01-21T20:07:02.443Z,4.80
2019-01-21T20:09:32.927Z,4.80
2019-01-21T20:12:02.446Z,4.90
2019-01-21T20:14:32.434Z,4.90
2019-01-21T20:17:02.162Z,4.80
2019-01-21T20:19:31.695Z,4.80
2019-01-21T20:22:07.056Z,4.80
2019-01-21T20:24:32.190Z,4.80
2019-01-21T20:27:03.030Z,4.90
2019-01-21T20:29:32.487Z,4.80
2019-01-21T20:32:02.180Z,4.80
2019-01-21T20:34:31.543Z,4.80
2019-01-21T20:37:01.195Z,4.90
2019-01-21T20:39:30.727Z,4.90
2019-01-21T20:42:00.825Z,4.90
2019-01-21T20:44:30.834Z,4.90
2019-01-21T20:47:01.198Z,4.90
2019-01-21T20:49:31.040Z,4.90
2019-01-21T20:52:00.579Z,4.80
2019-01-21T20:54:30.070Z,4.90
2019-01-21T20:56:59.513Z,4.90
2019-01-21T20:59:28.935Z,4.90
2019-01-21T21:02:10.755Z,5.00
2019-01-21T21:04:42.009Z,5.00
2019-01-21T21:07:12.765Z,5.00
2019-01-21T21:09:43.285Z,5.00
2019-01-21T21:12:25.823Z,5.00
2019-01-21T21:14:55.707Z,4.90
2019-01-21T21:17:27.376Z,4.90
2019-01-21T21:22:40.509Z,5.00
2019-01-21T21:25:15.646Z,5.00
2019-01-21T21:27:52.918Z,5.00
2019-01-21T21:30:27.036Z,4.90
2019-01-21T21:33:00.493Z,4.90
2019-01-21T21:35:31.899Z,5.00
2019-01-21T21:38:06.077Z,4.90
2019-01-21T21:40:36.323Z,4.90
2019-01-21T21:43:09.829Z,4.90
2019-01-21T21:45:39.790Z,4.90
2019-01-21T21:48:14.813Z,4.90
2019-01-21T21:50:44.809Z,4.90
2019-01-21T21:53:19.827Z,4.90
2019-01-21T21:55:51.599Z,4.80
2019-01-21T21:58:24.774Z,4.90
2019-01-21T22:00:55.852Z,4.90
2019-01-21T22:03:35.903Z,4.80
2019-01-21T22:06:11.240Z,4.80
2019-01-21T22:08:40.812Z,4.80
2019-01-21T22:11:11.371Z,4.90
2019-01-21T22:13:44.284Z,4.80
2019-01-21T22:16:18.103Z,4.80
2019-01-21T22:21:27.325Z,4.80
2019-01-21T22:23:58.763Z,4.80
2019-01-21T22:26:31.633Z,4.70
2019-01-21T22:29:02.182Z,4.80
2019-01-21T22:31:37.088Z,4.80
2019-01-21T22:34:06.644Z,4.80
2019-01-21T22:36:36.721Z,4.80
2019-01-21T22:39:08.086Z,4.80
2019-01-21T22:41:37.536Z,4.70
2019-01-21T22:44:25.229Z,4.70
2019-01-21T22:46:55.398Z,4.70
2019-01-21T22:49:25.041Z,4.70
2019-01-21T22:51:54.459Z,4.70
2019-01-21T22:54:23.976Z,4.70
2019-01-21T22:56:53.396Z,4.70
2019-01-21T22:59:23.382Z,4.70
2019-01-21T23:01:53.587Z,4.70
2019-01-21T23:04:23.242Z,4.70
2019-01-21T23:06:53.190Z,4.70
2019-01-21T23:09:23.166Z,4.70
2019-01-21T23:11:52.597Z,4.80
2019-01-21T23:14:22.055Z,4.80
2019-01-21T23:16:51.607Z,4.80
2019-01-21T23:19:21.123Z,4.80
2019-01-21T23:21:50.562Z,4.80
2019-01-21T23:24:21.548Z,4.80
2019-01-21T23:26:51.048Z,4.80
2019-01-21T23:29:21.178Z,4.80
2019-01-21T23:31:50.627Z,4.90
2019-01-21T23:34:21.379Z,4.90
2019-01-21T23:36:50.891Z,4.90
2019-01-21T23:39:21.152Z,4.90
2019-01-21T23:41:50.571Z,4.90
2019-01-21T23:44:20.013Z,4.90
2019-01-21T23:46:49.451Z,4.90
2019-01-21T23:49:19.291Z,4.90
2019-01-21T23:51:49.363Z,4.90
2019-01-21T23:54:18.815Z,4.90
2019-01-21T23:56:48.223Z,4.90
2019-01-21T23:59:17.678Z,5.00
